createdAt,value
2022-10-05T00:00:51.164Z,73.27
2022-10-05T00:03:38.841Z,73.32
2022-10-05T00:06:13.367Z,73.28
2022-10-05T00:08:45.986Z,73.28
2022-10-05T00:11:18.770Z,73.45
2022-10-05T00:13:51.924Z,73.54
2022-10-05T00:16:23.853Z,73.64
2022-10-05T00:18:56.391Z,73.82
2022-10-05T00:21:30.109Z,73.75
2022-10-05T00:24:05.141Z,73.76
2022-10-05T00:26:37.105Z,73.72
2022-10-05T00:29:22.702Z,73.76
2022-10-05T00:31:54.436Z,73.77
2022-10-05T00:34:28.718Z,73.75
2022-10-05T00:37:00.962Z,73.76
2022-10-05T00:39:32.874Z,73.85
2022-10-05T00:42:19.603Z,74.01
2022-10-05T00:44:58.102Z,74.05
2022-10-05T00:47:50.894Z,73.98
2022-10-05T00:50:48.356Z,73.96
2022-10-05T00:53:33.694Z,74.05
2022-10-05T00:56:11.478Z,74.15
2022-10-05T00:58:55.163Z,74.02
2022-10-05T01:01:36.438Z,74.10
2022-10-05T01:04:17.739Z,73.95
2022-10-05T01:07:05.831Z,74.14
2022-10-05T01:09:46.685Z,74.02
2022-10-05T01:12:27.019Z,74.15
2022-10-05T01:15:06.093Z,74.10
2022-10-05T01:17:46.905Z,74.20
2022-10-05T01:20:28.648Z,74.17
2022-10-05T01:23:20.708Z,74.14
2022-10-05T01:26:05.142Z,74.14
2022-10-05T01:28:42.277Z,74.24
2022-10-05T01:31:22.475Z,74.20
2022-10-05T01:34:09.146Z,74.21
2022-10-05T01:36:51.277Z,74.16
2022-10-05T01:39:30.420Z,74.24
2022-10-05T01:42:13.741Z,74.17
2022-10-05T01:44:54.457Z,74.22
2022-10-05T01:47:36.979Z,74.24
2022-10-05T01:50:20.725Z,74.36
2022-10-05T01:53:00.034Z,74.27
2022-10-05T01:55:39.067Z,74.36
2022-10-05T01:58:20.076Z,74.34
2022-10-05T02:00:59.579Z,74.48
2022-10-05T02:03:37.685Z,74.51
2022-10-05T02:06:16.401Z,74.62
2022-10-05T02:08:51.732Z,74.66
2022-10-05T02:11:25.897Z,74.75
2022-10-05T02:14:06.901Z,74.62
2022-10-05T02:16:44.589Z,74.68
2022-10-05T02:19:21.262Z,74.73
2022-10-05T02:21:57.624Z,74.76
2022-10-05T02:24:36.377Z,74.63
2022-10-05T02:27:10.628Z,74.64
2022-10-05T02:29:48.328Z,74.63
2022-10-05T02:32:26.941Z,74.61
2022-10-05T02:35:04.007Z,74.54
2022-10-05T02:37:44.016Z,74.51
2022-10-05T02:40:26.847Z,74.59
2022-10-05T02:43:09.293Z,74.61
2022-10-05T02:45:49.460Z,74.63
2022-10-05T02:48:31.317Z,74.58
2022-10-05T02:51:13.225Z,74.62
2022-10-05T02:53:56.377Z,74.63
2022-10-05T02:56:37.284Z,74.62
2022-10-05T02:59:15.862Z,74.59
2022-10-05T03:01:53.268Z,74.69
2022-10-05T03:04:33.718Z,74.79
2022-10-05T03:07:15.436Z,74.89
2022-10-05T03:09:58.814Z,74.92
2022-10-05T03:12:48.805Z,74.98
2022-10-05T03:15:38.119Z,75.06
2022-10-05T03:18:21.006Z,75.03
2022-10-05T03:21:06.163Z,74.99
2022-10-05T03:23:50.147Z,75.04
2022-10-05T03:26:35.882Z,75.05
2022-10-05T03:29:17.323Z,75.03
2022-10-05T03:31:57.013Z,75.07
2022-10-05T03:34:35.813Z,75.03
2022-10-05T03:37:16.094Z,75.10
2022-10-05T03:39:54.450Z,75.03
2022-10-05T03:42:35.228Z,75.04
2022-10-05T03:45:11.057Z,75.02
2022-10-05T03:47:50.245Z,75.05
2022-10-05T03:50:41.858Z,75.05
2022-10-05T03:53:18.699Z,75.06
2022-10-05T03:55:56.563Z,75.06
2022-10-05T03:58:34.469Z,75.05
2022-10-05T04:01:12.031Z,75.14
2022-10-05T04:03:47.291Z,75.22
2022-10-05T04:06:23.452Z,75.30
2022-10-05T04:09:01.648Z,75.30
2022-10-05T04:11:38.799Z,75.23
2022-10-05T04:14:15.490Z,75.33
2022-10-05T04:16:50.639Z,75.24
2022-10-05T04:19:27.102Z,75.34
2022-10-05T04:22:05.900Z,75.45
2022-10-05T04:24:43.895Z,75.58
2022-10-05T04:27:19.371Z,75.45
2022-10-05T04:29:58.769Z,75.58
2022-10-05T04:32:40.044Z,75.60
2022-10-05T04:35:30.784Z,75.67
2022-10-05T04:38:12.863Z,75.66
2022-10-05T04:40:58.736Z,75.67
2022-10-05T04:43:43.137Z,75.66
2022-10-05T04:46:27.988Z,75.80
2022-10-05T04:49:15.357Z,75.76
2022-10-05T04:51:55.666Z,75.81
2022-10-05T04:54:37.592Z,75.74
2022-10-05T04:57:13.765Z,75.74
2022-10-05T05:00:02.170Z,75.79
2022-10-05T05:02:47.245Z,75.77
2022-10-05T05:05:53.102Z,75.74
2022-10-05T05:08:47.293Z,75.76
2022-10-05T05:11:28.285Z,75.78
2022-10-05T05:14:17.539Z,75.76
2022-10-05T05:16:59.106Z,75.70
2022-10-05T05:19:47.197Z,75.69
2022-10-05T05:22:36.899Z,75.52
2022-10-05T05:25:38.626Z,75.53
2022-10-05T05:28:24.605Z,75.45
2022-10-05T05:31:08.351Z,75.46
2022-10-05T05:33:50.106Z,75.45
2022-10-05T05:36:35.714Z,75.26
2022-10-05T05:39:25.274Z,75.28
2022-10-05T05:42:03.091Z,75.18
2022-10-05T05:44:42.615Z,75.10
2022-10-05T05:47:22.577Z,75.03
2022-10-05T05:50:07.626Z,75.02
2022-10-05T05:52:48.270Z,74.85
2022-10-05T05:55:29.670Z,74.80
2022-10-05T05:58:10.399Z,74.78
2022-10-05T06:00:47.762Z,74.76
2022-10-05T06:03:25.648Z,74.65
2022-10-05T06:06:02.897Z,74.59
2022-10-05T06:08:45.022Z,74.50
2022-10-05T06:11:23.035Z,74.38
2022-10-05T06:13:55.612Z,74.33
2022-10-05T06:16:36.125Z,74.29
2022-10-05T06:19:14.225Z,74.22
2022-10-05T06:21:52.075Z,74.06
2022-10-05T06:24:27.404Z,73.98
2022-10-05T06:27:24.512Z,73.93
2022-10-05T06:30:13.964Z,73.72
2022-10-05T06:33:03.704Z,73.51
2022-10-05T06:35:48.585Z,73.31
2022-10-05T06:38:35.090Z,73.17
2022-10-05T06:41:20.434Z,73.18
2022-10-05T06:43:59.444Z,72.77
2022-10-05T06:46:37.071Z,72.80
2022-10-05T06:49:24.535Z,72.32
2022-10-05T06:52:03.526Z,72.47
2022-10-05T06:54:48.617Z,72.50
2022-10-05T06:57:39.150Z,72.32
2022-10-05T07:00:24.939Z,72.29
2022-10-05T07:03:05.405Z,72.04
2022-10-05T07:05:53.663Z,71.85
2022-10-05T07:08:40.075Z,71.94
2022-10-05T07:11:26.471Z,71.84
2022-10-05T07:14:13.341Z,71.46
2022-10-05T07:16:58.598Z,71.12
2022-10-05T07:19:38.072Z,71.34
2022-10-05T07:22:30.534Z,71.34
2022-10-05T07:25:11.717Z,70.78
2022-10-05T07:27:51.871Z,70.77
2022-10-05T07:30:30.063Z,70.85
2022-10-05T07:33:09.516Z,70.61
2022-10-05T07:36:12.360Z,70.24
2022-10-05T07:38:54.480Z,69.92
2022-10-05T07:41:35.041Z,70.23
2022-10-05T07:44:14.260Z,70.04
2022-10-05T07:46:55.678Z,69.87
2022-10-05T07:49:42.620Z,69.59
2022-10-05T07:52:21.533Z,69.12
2022-10-05T07:55:03.385Z,69.18
2022-10-05T07:57:40.896Z,69.53
2022-10-05T08:00:19.144Z,69.47
2022-10-05T08:02:55.302Z,69.66
2022-10-05T08:05:31.087Z,69.51
2022-10-05T08:08:14.416Z,69.23
2022-10-05T08:10:56.288Z,69.30
2022-10-05T08:13:37.148Z,69.06
2022-10-05T08:16:15.614Z,68.91
2022-10-05T08:18:58.578Z,69.10
2022-10-05T08:21:37.348Z,68.87
2022-10-05T08:24:16.703Z,68.38
2022-10-05T08:26:56.298Z,67.76
2022-10-05T08:29:34.256Z,67.18
2022-10-05T08:32:12.909Z,66.70
2022-10-05T08:34:52.578Z,66.99
2022-10-05T08:37:28.457Z,66.22
2022-10-05T08:40:25.460Z,66.34
2022-10-05T08:43:12.506Z,65.82
2022-10-05T08:46:11.620Z,65.64
2022-10-05T08:49:04.520Z,65.59
2022-10-05T08:52:01.791Z,65.21
2022-10-05T08:54:42.604Z,65.16
2022-10-05T08:57:47.618Z,64.27
2022-10-05T09:00:23.399Z,63.71
2022-10-05T09:03:16.254Z,63.79
2022-10-05T09:06:16.049Z,63.63
2022-10-05T09:09:20.284Z,63.20
2022-10-05T09:12:07.720Z,63.21
2022-10-05T09:15:01.504Z,63.16
2022-10-05T09:18:10.031Z,63.46
2022-10-05T09:20:51.330Z,62.84
2022-10-05T09:23:37.240Z,63.13
2022-10-05T09:26:44.761Z,63.30
2022-10-05T09:29:51.958Z,63.78
2022-10-05T09:32:43.003Z,62.72
2022-10-05T09:35:28.558Z,63.06
2022-10-05T09:38:15.228Z,62.84
2022-10-05T09:41:18.209Z,62.93
2022-10-05T09:44:32.727Z,62.49
2022-10-05T09:47:31.931Z,61.50
2022-10-05T09:50:30.904Z,61.01
2022-10-05T09:53:40.907Z,60.96
2022-10-05T09:56:41.614Z,61.02
2022-10-05T09:59:36.159Z,59.57
2022-10-05T10:02:43.528Z,60.01
2022-10-05T10:05:32.947Z,60.63
2022-10-05T10:08:17.187Z,60.47
2022-10-05T10:11:12.802Z,59.70
2022-10-05T10:14:07.055Z,59.43
2022-10-05T10:16:59.635Z,59.91
2022-10-05T10:20:01.399Z,60.16
2022-10-05T10:23:13.809Z,59.74
2022-10-05T10:26:25.322Z,59.84
2022-10-05T10:29:42.478Z,59.93
2022-10-05T10:32:30.729Z,59.50
2022-10-05T10:35:19.467Z,58.98
2022-10-05T10:38:26.717Z,59.48
2022-10-05T10:41:21.097Z,59.12
2022-10-05T10:44:15.744Z,59.12
2022-10-05T10:47:01.219Z,59.41
2022-10-05T10:49:51.130Z,59.19
2022-10-05T10:52:37.235Z,58.87
2022-10-05T10:55:39.022Z,59.11
2022-10-05T10:58:50.647Z,58.76
2022-10-05T11:01:35.487Z,59.07
2022-10-05T11:04:34.101Z,58.79
2022-10-05T11:07:46.891Z,58.55
2022-10-05T11:10:30.940Z,57.99
2022-10-05T11:13:18.290Z,57.77
2022-10-05T11:19:07.067Z,57.87
2022-10-05T11:21:45.789Z,58.45
2022-10-05T11:24:43.523Z,58.36
2022-10-05T11:27:29.320Z,57.74
2022-10-05T11:30:22.367Z,57.26
2022-10-05T11:33:20.589Z,57.49
2022-10-05T11:36:09.005Z,58.14
2022-10-05T11:39:02.187Z,58.51
2022-10-05T11:41:59.161Z,58.27
2022-10-05T11:44:52.756Z,58.16
2022-10-05T11:47:27.561Z,57.67
2022-10-05T11:50:14.149Z,57.71
2022-10-05T11:52:55.246Z,57.79
2022-10-05T11:55:32.905Z,57.28
2022-10-05T11:58:12.575Z,57.31
2022-10-05T12:00:51.213Z,57.23
2022-10-05T12:03:48.136Z,56.86
2022-10-05T12:06:38.808Z,57.05
2022-10-05T12:09:25.088Z,57.46
2022-10-05T12:12:09.185Z,57.54
2022-10-05T12:14:54.641Z,57.27
2022-10-05T12:17:34.112Z,56.50
2022-10-05T12:20:21.659Z,56.91
2022-10-05T12:22:58.097Z,56.98
2022-10-05T12:25:35.193Z,56.43
2022-10-05T12:28:12.246Z,56.31
2022-10-05T12:31:09.364Z,56.76
2022-10-05T12:33:48.050Z,56.51
2022-10-05T12:36:31.958Z,56.45
2022-10-05T12:39:23.576Z,56.06
2022-10-05T12:42:05.765Z,55.96
2022-10-05T12:45:04.432Z,56.46
2022-10-05T12:47:53.628Z,56.52
2022-10-05T12:50:28.865Z,56.74
2022-10-05T12:53:16.953Z,56.33
2022-10-05T12:55:59.466Z,56.30
2022-10-05T12:58:43.193Z,56.53
2022-10-05T13:01:29.054Z,56.34
2022-10-05T13:04:12.309Z,56.52
2022-10-05T13:06:49.031Z,56.23
2022-10-05T13:09:29.374Z,55.93
2022-10-05T13:12:09.352Z,55.86
2022-10-05T13:14:55.879Z,55.79
2022-10-05T13:17:37.262Z,55.87
2022-10-05T13:20:26.491Z,56.16
2022-10-05T13:23:06.590Z,56.14
2022-10-05T13:25:43.709Z,55.73
2022-10-05T13:28:22.981Z,55.59
2022-10-05T13:31:06.700Z,55.63
2022-10-05T13:34:03.080Z,55.52
2022-10-05T13:36:44.883Z,55.70
2022-10-05T13:39:28.844Z,55.53
2022-10-05T13:42:08.900Z,55.63
2022-10-05T13:44:49.234Z,55.66
2022-10-05T13:47:31.551Z,55.24
2022-10-05T13:50:10.951Z,55.02
2022-10-05T13:52:55.210Z,54.95
2022-10-05T13:55:39.020Z,55.22
2022-10-05T13:58:20.229Z,54.47
2022-10-05T14:00:55.719Z,54.73
2022-10-05T14:03:31.812Z,54.63
2022-10-05T14:06:11.678Z,54.69
2022-10-05T14:08:53.050Z,54.23
2022-10-05T14:11:31.358Z,54.63
2022-10-05T14:14:15.051Z,54.70
2022-10-05T14:16:54.810Z,54.76
2022-10-05T14:19:32.729Z,54.79
2022-10-05T14:22:13.259Z,54.74
2022-10-05T14:24:55.254Z,54.74
2022-10-05T14:27:31.049Z,54.86
2022-10-05T14:30:29.071Z,54.66
2022-10-05T14:33:15.268Z,54.82
2022-10-05T14:35:53.111Z,54.96
2022-10-05T14:38:29.518Z,54.88
2022-10-05T14:41:18.369Z,54.99
2022-10-05T14:43:58.499Z,54.84
2022-10-05T14:46:32.802Z,53.89
2022-10-05T14:49:21.523Z,54.02
2022-10-05T14:51:54.625Z,54.50
2022-10-05T14:54:30.512Z,53.74
2022-10-05T14:57:12.376Z,53.81
2022-10-05T15:00:11.385Z,53.26
2022-10-05T15:03:18.245Z,53.83
2022-10-05T15:05:53.517Z,54.43
2022-10-05T15:08:46.441Z,54.60
2022-10-05T15:11:29.963Z,54.72
2022-10-05T15:14:03.453Z,54.92
2022-10-05T15:16:39.232Z,55.12
2022-10-05T15:19:21.027Z,55.01
2022-10-05T15:22:08.658Z,55.23
2022-10-05T15:24:46.786Z,55.10
2022-10-05T15:27:32.899Z,55.39
2022-10-05T15:30:20.143Z,55.47
2022-10-05T15:33:06.418Z,55.65
2022-10-05T15:35:48.945Z,55.44
2022-10-05T15:38:25.862Z,55.76
2022-10-05T15:41:11.055Z,55.66
2022-10-05T15:43:53.974Z,55.92
2022-10-05T15:46:35.174Z,55.93
2022-10-05T15:49:16.457Z,56.10
2022-10-05T15:52:01.900Z,56.32
2022-10-05T15:55:03.535Z,56.50
2022-10-05T15:57:46.766Z,56.69
2022-10-05T16:00:25.381Z,56.80
2022-10-05T16:03:09.727Z,56.94
2022-10-05T16:06:07.660Z,57.09
2022-10-05T16:08:55.726Z,57.35
2022-10-05T16:11:43.690Z,57.38
2022-10-05T16:14:32.021Z,57.67
2022-10-05T16:17:17.559Z,57.95
2022-10-05T16:20:18.011Z,58.34
2022-10-05T16:23:02.696Z,58.28
2022-10-05T16:25:47.206Z,58.66
2022-10-05T16:28:29.300Z,58.71
2022-10-05T16:31:08.042Z,58.75
2022-10-05T16:33:54.391Z,59.07
2022-10-05T16:36:40.279Z,59.26
2022-10-05T16:39:16.959Z,59.25
2022-10-05T16:41:58.518Z,59.49
2022-10-05T16:44:40.804Z,59.59
2022-10-05T16:47:35.791Z,59.60
2022-10-05T16:50:24.222Z,59.64
2022-10-05T16:53:02.518Z,59.31
2022-10-05T16:55:37.889Z,59.53
2022-10-05T16:58:17.775Z,59.53
2022-10-05T17:01:03.007Z,59.71
2022-10-05T17:03:49.764Z,59.91
2022-10-05T17:06:55.110Z,59.76
2022-10-05T17:09:46.970Z,60.20
2022-10-05T17:12:34.963Z,60.13
2022-10-05T17:15:24.068Z,60.31
2022-10-05T17:18:07.834Z,60.35
2022-10-05T17:20:50.917Z,60.39
2022-10-05T17:23:44.019Z,60.69
2022-10-05T17:26:40.138Z,60.60
2022-10-05T17:29:26.625Z,60.71
2022-10-05T17:32:33.604Z,60.79
2022-10-05T17:35:40.587Z,61.09
2022-10-05T17:38:22.185Z,61.22
2022-10-05T17:41:18.159Z,61.11
2022-10-05T17:44:21.035Z,61.22
2022-10-05T17:46:54.157Z,61.49
2022-10-05T17:50:19.330Z,61.39
2022-10-05T17:53:39.588Z,61.41
2022-10-05T17:56:11.351Z,61.55
2022-10-05T17:59:03.530Z,61.76
2022-10-05T18:01:38.185Z,61.96
2022-10-05T18:04:34.723Z,62.20
2022-10-05T18:07:19.435Z,62.04
2022-10-05T18:09:59.056Z,62.24
2022-10-05T18:12:49.498Z,62.24
2022-10-05T18:15:48.788Z,62.30
2022-10-05T18:18:50.760Z,62.84
2022-10-05T18:21:35.699Z,62.63
2022-10-05T18:24:28.797Z,62.73
2022-10-05T18:27:16.999Z,62.99
2022-10-05T18:33:30.009Z,63.22
2022-10-05T18:36:12.170Z,63.22
2022-10-05T18:38:55.872Z,63.40
2022-10-05T18:41:41.371Z,63.65
2022-10-05T18:44:30.607Z,63.56
2022-10-05T18:47:09.089Z,64.03
2022-10-05T18:49:51.892Z,63.62
2022-10-05T18:52:35.807Z,64.11
2022-10-05T18:55:20.247Z,63.93
2022-10-05T18:58:20.311Z,63.96
2022-10-05T19:01:15.142Z,64.01
2022-10-05T19:04:02.289Z,64.32
2022-10-05T19:06:41.539Z,64.50
2022-10-05T19:09:26.771Z,64.53
2022-10-05T19:12:05.563Z,64.49
2022-10-05T19:14:45.392Z,64.69
2022-10-05T19:17:33.681Z,64.65
2022-10-05T19:20:25.678Z,64.92
2022-10-05T19:23:18.758Z,64.80
2022-10-05T19:25:55.776Z,65.26
2022-10-05T19:28:38.164Z,65.16
2022-10-05T19:31:26.497Z,65.28
2022-10-05T19:34:16.473Z,65.38
2022-10-05T19:37:08.252Z,65.43
2022-10-05T19:39:49.289Z,65.58
2022-10-05T19:42:38.354Z,65.70
2022-10-05T19:45:19.322Z,65.80
2022-10-05T19:47:55.155Z,65.75
2022-10-05T19:50:37.852Z,66.02
2022-10-05T19:53:15.072Z,66.11
2022-10-05T19:55:47.478Z,66.09
2022-10-05T19:58:26.146Z,65.95
2022-10-05T20:01:04.459Z,66.04
2022-10-05T20:03:39.050Z,66.18
2022-10-05T20:06:13.105Z,66.19
2022-10-05T20:08:46.489Z,66.37
2022-10-05T20:11:19.286Z,66.48
2022-10-05T20:14:20.997Z,66.43
2022-10-05T20:17:43.966Z,66.75
2022-10-05T20:20:35.577Z,66.73
2022-10-05T20:23:24.992Z,66.74
2022-10-05T20:26:14.152Z,67.07
2022-10-05T20:28:46.812Z,66.93
2022-10-05T20:31:21.122Z,67.08
2022-10-05T20:33:52.692Z,67.31
2022-10-05T20:36:24.428Z,67.41
2022-10-05T20:38:56.009Z,67.42
2022-10-05T20:41:27.565Z,67.57
2022-10-05T20:43:59.235Z,67.66
2022-10-05T20:46:31.379Z,67.46
2022-10-05T20:49:03.034Z,67.63
2022-10-05T20:51:34.591Z,67.76
2022-10-05T20:54:06.754Z,67.70
2022-10-05T20:56:38.427Z,67.87
2022-10-05T20:59:10.081Z,67.86
2022-10-05T21:01:45.166Z,68.13
2022-10-05T21:04:17.565Z,68.12
2022-10-05T21:06:49.404Z,68.28
2022-10-05T21:09:21.765Z,68.29
2022-10-05T21:11:56.438Z,68.32
2022-10-05T21:14:33.016Z,68.48
2022-10-05T21:17:04.878Z,68.60
2022-10-05T21:19:38.561Z,68.60
2022-10-05T21:22:12.197Z,68.60
2022-10-05T21:24:43.808Z,68.80
2022-10-05T21:27:15.950Z,68.76
2022-10-05T21:29:47.488Z,68.86
2022-10-05T21:32:20.689Z,68.89
2022-10-05T21:34:52.248Z,69.03
2022-10-05T21:37:23.841Z,69.04
2022-10-05T21:39:55.473Z,69.13
2022-10-05T21:42:29.039Z,69.09
2022-10-05T21:45:00.631Z,69.15
2022-10-05T21:47:32.281Z,69.26
2022-10-05T21:50:05.384Z,69.36
2022-10-05T21:52:38.090Z,69.41
2022-10-05T21:55:11.613Z,69.38
2022-10-05T21:57:44.063Z,69.53
2022-10-05T22:00:16.975Z,69.54
2022-10-05T22:02:50.250Z,69.63
2022-10-05T22:05:22.162Z,69.68
2022-10-05T22:07:54.543Z,69.64
2022-10-05T22:10:26.440Z,69.63
2022-10-05T22:13:04.303Z,69.89
2022-10-05T22:15:35.937Z,69.95
2022-10-05T22:18:07.743Z,70.09
2022-10-05T22:20:39.429Z,70.20
2022-10-05T22:23:12.305Z,70.19
2022-10-05T22:25:44.316Z,70.43
2022-10-05T22:28:17.655Z,70.51
2022-10-05T22:30:49.399Z,70.48
2022-10-05T22:33:22.677Z,70.60
2022-10-05T22:35:54.710Z,70.73
2022-10-05T22:38:26.740Z,70.69
2022-10-05T22:40:58.795Z,70.69
2022-10-05T22:43:31.451Z,70.74
2022-10-05T22:46:08.263Z,70.73
2022-10-05T22:48:40.322Z,70.67
2022-10-05T22:51:12.132Z,70.68
2022-10-05T22:53:44.727Z,70.89
2022-10-05T22:56:17.168Z,70.84
2022-10-05T22:58:49.908Z,70.97
2022-10-05T23:01:22.410Z,71.04
2022-10-05T23:03:56.298Z,71.08
2022-10-05T23:06:27.978Z,71.23
2022-10-05T23:09:00.400Z,71.18
2022-10-05T23:11:32.083Z,71.20
2022-10-05T23:14:04.634Z,71.34
2022-10-05T23:16:36.260Z,71.35
2022-10-05T23:19:07.887Z,71.43
2022-10-05T23:21:39.846Z,71.52
2022-10-05T23:24:12.692Z,71.59
2022-10-05T23:26:44.232Z,71.69
2022-10-05T23:29:15.827Z,71.77
2022-10-05T23:31:47.398Z,71.87
2022-10-05T23:34:21.572Z,71.83
2022-10-05T23:36:53.056Z,71.97
2022-10-05T23:39:24.706Z,72.14
2022-10-05T23:41:56.263Z,72.44
2022-10-05T23:44:29.738Z,72.69
2022-10-05T23:47:01.289Z,73.22
2022-10-05T23:49:32.860Z,73.97
2022-10-05T23:52:04.449Z,74.24
2022-10-05T23:54:36.819Z,74.92
2022-10-05T23:57:08.372Z,74.82
2022-10-05T23:59:39.951Z,75.17
